Time;durP1;ratioP1;P1;durP2;ratioP2;P2;SDS_P1;SDS_P2;PMS_P1;PMS_P2;Temp;Humidity;BMP_temperature;BMP_pressure;BME280_temperature;BME280_humidity;BME280_pressure;Samples;Min_cycle;Max_cycle;Signal;HPM_P1;HPM_P2
2022/06/26 00:01:39;;;;;;;8.10;4.43;;;;;;;;;;4979330;28;20149;-82
2022/06/26 00:04:05;;;;;;;10.57;4.65;;;;;;;;;;4972540;28;20031;-83
2022/06/26 00:06:30;;;;;;;6.80;4.05;;;;;;;;;;4960634;28;20030;-82
2022/06/26 00:08:56;;;;;;;5.75;3.30;;;;;;;;;;4961859;28;20031;-82
2022/06/26 00:11:21;;;;;;;5.10;2.65;;;;;;;;;;4980744;28;20490;-82
2022/06/26 00:13:47;;;;;;;5.28;3.03;;;;;;;;;;4980986;28;20046;-82
2022/06/26 00:16:12;;;;;;;3.95;2.80;;;;;;;;;;4965152;28;20043;-82
2022/06/26 00:18:38;;;;;;;4.03;2.72;;;;;;;;;;4970471;28;20031;-84
2022/06/26 00:21:05;;;;;;;3.33;2.30;;;;;;;;;;4963019;28;20073;-82
2022/06/26 00:23:30;;;;;;;5.30;2.63;;;;;;;;;;4964446;28;20035;-82
2022/06/26 00:25:57;;;;;;;7.55;2.70;;;;;;;;;;4973170;28;20353;-83
2022/06/26 00:28:23;;;;;;;3.10;2.15;;;;;;;;;;4971807;28;20035;-82
2022/06/26 00:30:48;;;;;;;3.78;2.35;;;;;;;;;;4963365;28;20019;-82
2022/06/26 00:33:13;;;;;;;10.07;2.22;;;;;;;;;;4965700;28;20034;-82
2022/06/26 00:35:39;;;;;;;2.53;2.10;;;;;;;;;;4973462;28;20129;-83
2022/06/26 00:38:04;;;;;;;5.50;2.20;;;;;;;;;;4972663;28;20027;-83
2022/06/26 00:40:30;;;;;;;2.42;2.10;;;;;;;;;;4971570;28;20027;-83
2022/06/26 00:42:56;;;;;;;3.90;2.30;;;;;;;;;;4972285;28;20034;-83
2022/06/26 00:45:21;;;;;;;2.35;1.75;;;;;;;;;;4977394;28;20117;-83
2022/06/26 00:47:47;;;;;;;1.83;1.73;;;;;;;;;;4971730;28;20113;-82
2022/06/26 00:50:12;;;;;;;2.83;2.05;;;;;;;;;;4968722;28;20132;-84
2022/06/26 00:52:40;;;;;;;3.97;1.85;;;;;;;;;;4965461;28;20031;-82
2022/06/26 00:55:07;;;;;;;2.05;1.60;;;;;;;;;;4973239;28;20023;-83
2022/06/26 00:57:34;;;;;;;2.65;1.52;;;;;;;;;;4976440;28;20039;-83
2022/06/26 00:59:59;;;;;;;1.52;1.42;;;;;;;;;;4972450;28;20026;-83
2022/06/26 01:02:26;;;;;;;2.30;1.50;;;;;;;;;;4971588;28;20031;-83
2022/06/26 01:04:52;;;;;;;1.42;1.33;;;;;;;;;;4968176;28;20034;-83
2022/06/26 01:07:18;;;;;;;1.50;1.40;;;;;;;;;;4985309;28;20022;-83
2022/06/26 01:09:44;;;;;;;1.58;1.20;;;;;;;;;;4992495;28;20041;-83
2022/06/26 01:12:09;;;;;;;1.20;1.15;;;;;;;;;;4971402;28;20023;-83
2022/06/26 01:14:35;;;;;;;2.88;1.52;;;;;;;;;;4977873;28;20031;-83
2022/06/26 01:17:00;;;;;;;2.25;1.20;;;;;;;;;;4979105;28;20026;-83
2022/06/26 01:19:27;;;;;;;1.45;1.35;;;;;;;;;;4962832;28;20031;-82
2022/06/26 01:21:53;;;;;;;2.47;1.50;;;;;;;;;;4960018;28;20031;-82
2022/06/26 01:24:18;;;;;;;2.55;1.67;;;;;;;;;;4975486;28;20030;-83
2022/06/26 01:26:44;;;;;;;1.70;1.60;;;;;;;;;;4971594;28;20025;-82
2022/06/26 01:29:10;;;;;;;2.80;1.63;;;;;;;;;;4967442;28;20042;-82
2022/06/26 01:31:36;;;;;;;3.28;1.67;;;;;;;;;;4966064;28;20509;-82
2022/06/26 01:34:11;;;;;;;1.65;1.55;;;;;;;;;;4969193;28;20034;-82
2022/06/26 01:36:37;;;;;;;2.08;1.50;;;;;;;;;;4960515;28;20130;-82
2022/06/26 01:39:05;;;;;;;2.15;1.48;;;;;;;;;;4960934;28;20118;-82
2022/06/26 01:41:31;;;;;;;2.88;1.70;;;;;;;;;;4968950;28;20039;-82
2022/06/26 01:43:56;;;;;;;1.55;1.38;;;;;;;;;;4980571;28;20025;-82
2022/06/26 01:46:24;;;;;;;1.63;1.50;;;;;;;;;;4983810;28;20029;-82
2022/06/26 01:48:50;;;;;;;2.88;1.45;;;;;;;;;;4969545;28;20031;-82
2022/06/26 01:51:16;;;;;;;4.20;1.63;;;;;;;;;;4963962;28;20059;-82
2022/06/26 01:53:41;;;;;;;3.83;1.80;;;;;;;;;;4963674;28;20402;-82
2022/06/26 01:56:07;;;;;;;1.40;1.27;;;;;;;;;;4969395;28;20027;-83
2022/06/26 01:58:33;;;;;;;5.57;1.48;;;;;;;;;;4972235;28;20035;-82
2022/06/26 02:00:59;;;;;;;1.88;1.60;;;;;;;;;;4960859;29;20086;-83
2022/06/26 02:03:27;;;;;;;1.65;1.55;;;;;;;;;;4963162;29;20055;-83
2022/06/26 02:05:53;;;;;;;1.50;1.40;;;;;;;;;;4963712;28;20119;-83
2022/06/26 02:08:19;;;;;;;3.22;1.40;;;;;;;;;;4961440;28;20037;-83
2022/06/26 02:13:42;;;;;;;2.00;1.50;;;;;;;;;;4990442;28;20070;-81
2022/06/26 02:16:21;;;;;;;1.50;1.40;;;;;;;;;;4984778;28;20030;-81
2022/06/26 02:18:53;;;;;;;2.15;1.58;;;;;;;;;;4990637;28;20046;-81
2022/06/26 02:21:21;;;;;;;2.42;1.40;;;;;;;;;;4996818;28;20042;-80
2022/06/26 02:23:48;;;;;;;1.50;1.40;;;;;;;;;;4979420;28;20095;-81
2022/06/26 02:26:16;;;;;;;1.50;1.30;;;;;;;;;;4992039;28;20030;-81
2022/06/26 02:28:41;;;;;;;2.63;1.52;;;;;;;;;;4990328;28;20038;-82
2022/06/26 02:31:07;;;;;;;3.53;1.50;;;;;;;;;;4995111;28;20027;-82
2022/06/26 02:33:35;;;;;;;2.00;1.40;;;;;;;;;;4978508;28;20515;-84
2022/06/26 02:36:02;;;;;;;4.90;1.40;;;;;;;;;;4966616;28;20035;-81
2022/06/26 02:38:28;;;;;;;1.80;1.33;;;;;;;;;;4960288;28;20049;-82
2022/06/26 02:40:55;;;;;;;6.22;1.45;;;;;;;;;;4958983;28;20035;-82
2022/06/26 02:43:23;;;;;;;1.38;1.27;;;;;;;;;;4958191;28;20027;-82
2022/06/26 02:45:50;;;;;;;1.60;1.50;;;;;;;;;;4961491;28;20027;-81
2022/06/26 02:48:15;;;;;;;3.10;1.90;;;;;;;;;;4959884;28;20023;-83
2022/06/26 02:50:41;;;;;;;1.52;1.42;;;;;;;;;;4971106;28;20029;-83
2022/06/26 02:53:07;;;;;;;1.50;1.40;;;;;;;;;;4957914;28;20023;-83
2022/06/26 02:55:33;;;;;;;2.05;1.30;;;;;;;;;;4964900;28;20026;-83
2022/06/26 02:57:58;;;;;;;4.65;1.70;;;;;;;;;;4977949;28;20026;-83
2022/06/26 03:00:24;;;;;;;1.15;1.10;;;;;;;;;;4996781;28;20026;-83
2022/06/26 03:02:51;;;;;;;3.15;1.60;;;;;;;;;;4995599;28;20022;-83
2022/06/26 03:05:16;;;;;;;1.10;1.10;;;;;;;;;;4995827;28;20057;-83
2022/06/26 03:07:43;;;;;;;3.65;1.40;;;;;;;;;;4995159;28;20022;-83
2022/06/26 03:10:08;;;;;;;1.60;1.17;;;;;;;;;;4973652;28;20038;-83
2022/06/26 03:12:41;;;;;;;3.38;1.42;;;;;;;;;;4969397;28;20469;-83
2022/06/26 03:15:07;;;;;;;3.95;1.70;;;;;;;;;;4969882;28;20049;-82
2022/06/26 03:17:32;;;;;;;3.08;1.20;;;;;;;;;;4974956;28;20482;-83
2022/06/26 03:19:57;;;;;;;2.58;1.30;;;;;;;;;;4976062;28;20030;-83
2022/06/26 03:22:23;;;;;;;3.72;1.40;;;;;;;;;;4983991;28;20037;-83
2022/06/26 03:24:49;;;;;;;1.20;1.02;;;;;;;;;;4982226;28;20473;-83
2022/06/26 03:27:15;;;;;;;1.20;1.13;;;;;;;;;;4972217;28;20011;-83
2022/06/26 03:29:40;;;;;;;1.55;1.30;;;;;;;;;;4969518;28;20101;-83
2022/06/26 03:32:06;;;;;;;4.32;1.20;;;;;;;;;;4963589;28;20027;-83
2022/06/26 03:34:31;;;;;;;0.93;0.93;;;;;;;;;;4962940;29;20042;-83
2022/06/26 03:36:57;;;;;;;1.30;1.30;;;;;;;;;;4970320;28;20023;-82
2022/06/26 03:39:22;;;;;;;7.00;1.42;;;;;;;;;;4967307;28;20023;-83
2022/06/26 03:41:58;;;;;;;2.40;1.40;;;;;;;;;;4960887;28;20110;-83
2022/06/26 03:44:28;;;;;;;2.35;1.33;;;;;;;;;;4969587;28;20046;-82
2022/06/26 03:46:54;;;;;;;1.40;1.27;;;;;;;;;;4947781;29;20024;-82
2022/06/26 03:49:20;;;;;;;1.40;1.30;;;;;;;;;;4970917;28;20031;-83
2022/06/26 03:51:46;;;;;;;2.03;1.70;;;;;;;;;;4963739;28;20098;-82
2022/06/26 03:54:11;;;;;;;2.42;1.30;;;;;;;;;;4963105;28;20038;-83
2022/06/26 03:56:38;;;;;;;3.22;1.30;;;;;;;;;;4971443;28;20465;-83
2022/06/26 03:59:04;;;;;;;1.30;1.20;;;;;;;;;;4973449;28;20030;-82
2022/06/26 04:01:29;;;;;;;1.38;1.27;;;;;;;;;;4963766;28;20027;-82
2022/06/26 04:03:56;;;;;;;2.30;1.45;;;;;;;;;;4977660;28;20493;-83
2022/06/26 04:06:21;;;;;;;2.22;1.60;;;;;;;;;;4963919;28;20482;-80
2022/06/26 04:08:47;;;;;;;1.55;1.45;;;;;;;;;;4962146;28;20035;-83
2022/06/26 04:11:14;;;;;;;2.88;1.55;;;;;;;;;;4981135;28;20023;-81
2022/06/26 04:13:39;;;;;;;2.40;1.30;;;;;;;;;;4983535;28;20102;-82
2022/06/26 04:16:05;;;;;;;2.45;1.50;;;;;;;;;;4983533;28;20062;-82
2022/06/26 04:18:30;;;;;;;1.30;1.20;;;;;;;;;;4975015;28;20038;-82
2022/06/26 04:20:56;;;;;;;1.58;1.20;;;;;;;;;;4981587;28;20085;-82
2022/06/26 04:23:22;;;;;;;1.50;1.38;;;;;;;;;;4981748;28;20030;-82
2022/06/26 04:25:48;;;;;;;1.73;1.17;;;;;;;;;;4987522;28;20026;-82
2022/06/26 04:28:13;;;;;;;4.13;1.77;;;;;;;;;;4963559;28;20027;-82
2022/06/26 04:30:38;;;;;;;1.65;1.35;;;;;;;;;;4970717;28;20037;-82
2022/06/26 04:33:04;;;;;;;1.30;1.20;;;;;;;;;;4968968;28;20023;-82
2022/06/26 04:35:31;;;;;;;3.10;1.30;;;;;;;;;;4960242;28;20549;-82
2022/06/26 04:37:57;;;;;;;0.95;0.95;;;;;;;;;;4960542;28;20063;-83
2022/06/26 04:40:22;;;;;;;1.35;1.20;;;;;;;;;;4959245;29;20027;-83
2022/06/26 04:42:47;;;;;;;2.13;1.60;;;;;;;;;;4965469;28;20023;-84
2022/06/26 04:45:13;;;;;;;1.33;1.30;;;;;;;;;;4963305;28;20023;-83
2022/06/26 04:47:38;;;;;;;1.40;1.30;;;;;;;;;;4972505;28;20030;-84
2022/06/26 04:50:04;;;;;;;2.15;1.67;;;;;;;;;;4976780;28;20425;-85
2022/06/26 04:52:30;;;;;;;1.85;1.42;;;;;;;;;;4976085;28;20029;-85
2022/06/26 04:54:56;;;;;;;1.75;1.50;;;;;;;;;;4972838;28;20027;-85
2022/06/26 04:57:22;;;;;;;2.70;1.70;;;;;;;;;;4978631;28;20056;-83
2022/06/26 04:59:47;;;;;;;2.65;1.75;;;;;;;;;;4986233;28;20018;-83
2022/06/26 05:02:13;;;;;;;2.17;1.50;;;;;;;;;;4985980;28;20082;-84
2022/06/26 05:04:38;;;;;;;2.05;1.60;;;;;;;;;;4995686;28;20045;-84
2022/06/26 05:07:04;;;;;;;1.90;1.70;;;;;;;;;;4977193;28;20110;-83
2022/06/26 05:09:31;;;;;;;3.17;1.52;;;;;;;;;;4969993;28;20053;-84
2022/06/26 05:11:57;;;;;;;1.90;1.70;;;;;;;;;;4986889;28;20019;-84
2022/06/26 05:14:23;;;;;;;2.30;1.80;;;;;;;;;;4975589;28;20027;-83
2022/06/26 05:16:49;;;;;;;2.38;1.80;;;;;;;;;;4967152;28;20026;-84
2022/06/26 05:19:14;;;;;;;3.80;1.67;;;;;;;;;;4974430;28;20030;-84
2022/06/26 05:21:40;;;;;;;3.63;1.63;;;;;;;;;;4982633;28;20118;-84
2022/06/26 05:24:05;;;;;;;1.92;1.65;;;;;;;;;;4968408;28;20027;-84
2022/06/26 05:26:31;;;;;;;3.10;1.83;;;;;;;;;;4975742;28;20075;-83
2022/06/26 05:28:57;;;;;;;2.15;1.98;;;;;;;;;;4969722;28;20020;-84
2022/06/26 05:31:23;;;;;;;1.60;1.50;;;;;;;;;;4977973;28;20026;-84
2022/06/26 05:33:49;;;;;;;4.07;1.73;;;;;;;;;;4981044;28;20023;-84
2022/06/26 05:36:14;;;;;;;2.58;1.60;;;;;;;;;;4981836;28;20051;-83
2022/06/26 05:38:40;;;;;;;1.70;1.60;;;;;;;;;;4967239;28;20027;-84
2022/06/26 05:41:06;;;;;;;2.58;1.30;;;;;;;;;;4964336;28;20110;-83
2022/06/26 05:43:31;;;;;;;1.90;1.65;;;;;;;;;;4962967;28;20087;-85
2022/06/26 05:45:57;;;;;;;7.65;1.75;;;;;;;;;;4970317;28;20382;-84
2022/06/26 05:48:24;;;;;;;2.90;1.80;;;;;;;;;;4971602;28;20019;-85
2022/06/26 05:50:50;;;;;;;3.63;2.00;;;;;;;;;;4980339;28;20529;-85
2022/06/26 05:53:16;;;;;;;2.58;1.60;;;;;;;;;;4981242;28;20027;-84
2022/06/26 05:55:41;;;;;;;3.25;1.67;;;;;;;;;;4976211;28;20453;-85
2022/06/26 05:58:07;;;;;;;2.50;1.60;;;;;;;;;;4971758;28;20027;-84
2022/06/26 06:00:33;;;;;;;1.60;1.45;;;;;;;;;;4960790;28;20023;-85
2022/06/26 06:02:59;;;;;;;1.88;1.40;;;;;;;;;;4969074;28;20023;-84
2022/06/26 06:05:25;;;;;;;1.52;1.42;;;;;;;;;;4973126;28;20031;-85
2022/06/26 06:07:52;;;;;;;1.25;1.20;;;;;;;;;;4961830;28;20077;-84
2022/06/26 06:10:19;;;;;;;1.25;1.15;;;;;;;;;;4961983;28;20063;-83
2022/06/26 06:12:45;;;;;;;1.60;0.90;;;;;;;;;;4962070;28;20035;-84
2022/06/26 06:15:10;;;;;;;0.70;0.70;;;;;;;;;;4967884;28;20046;-85
2022/06/26 06:17:36;;;;;;;0.70;0.68;;;;;;;;;;4963363;28;20446;-84
2022/06/26 06:20:04;;;;;;;0.80;0.80;;;;;;;;;;4966949;28;20027;-83
2022/06/26 06:22:29;;;;;;;0.57;0.57;;;;;;;;;;4976428;28;20417;-84
2022/06/26 06:24:55;;;;;;;0.75;0.75;;;;;;;;;;4963870;28;20045;-84
2022/06/26 06:27:20;;;;;;;1.10;0.95;;;;;;;;;;4962293;28;20023;-84
2022/06/26 06:29:46;;;;;;;0.88;0.70;;;;;;;;;;4961814;28;20103;-83
2022/06/26 06:32:11;;;;;;;1.10;1.00;;;;;;;;;;4960378;28;20058;-84
2022/06/26 06:34:37;;;;;;;1.00;1.00;;;;;;;;;;4959478;28;20061;-85
2022/06/26 06:37:02;;;;;;;1.17;1.10;;;;;;;;;;4969480;28;20401;-83
2022/06/26 06:39:27;;;;;;;1.10;1.00;;;;;;;;;;4980677;28;20038;-85
2022/06/26 06:41:53;;;;;;;0.95;0.95;;;;;;;;;;4982157;28;20022;-85
2022/06/26 06:44:18;;;;;;;1.38;0.82;;;;;;;;;;4981696;28;20438;-85
2022/06/26 06:46:44;;;;;;;1.85;0.90;;;;;;;;;;4976663;28;20038;-84
2022/06/26 06:49:09;;;;;;;1.33;0.80;;;;;;;;;;4975046;28;20027;-84
2022/06/26 06:51:34;;;;;;;0.80;0.80;;;;;;;;;;4978953;28;20038;-84
2022/06/26 06:54:00;;;;;;;0.82;0.82;;;;;;;;;;4982588;28;20018;-84
2022/06/26 06:56:25;;;;;;;1.13;0.80;;;;;;;;;;4992393;28;20026;-83
2022/06/26 06:58:51;;;;;;;1.10;1.10;;;;;;;;;;4967112;28;20027;-84
2022/06/26 07:01:16;;;;;;;1.50;0.68;;;;;;;;;;4961591;28;20023;-83
2022/06/26 07:03:42;;;;;;;0.75;0.75;;;;;;;;;;4963553;28;20039;-83
2022/06/26 07:06:08;;;;;;;1.35;0.82;;;;;;;;;;4961572;28;20090;-82
2022/06/26 07:08:33;;;;;;;0.93;0.93;;;;;;;;;;4959996;29;20097;-84
2022/06/26 07:10:59;;;;;;;0.80;0.80;;;;;;;;;;4973860;28;20035;-83
2022/06/26 07:13:24;;;;;;;1.38;0.90;;;;;;;;;;4969399;28;20477;-82
2022/06/26 07:15:50;;;;;;;1.58;1.00;;;;;;;;;;4966352;28;20023;-84
2022/06/26 07:18:15;;;;;;;1.23;0.80;;;;;;;;;;4970361;28;20023;-83
2022/06/26 07:20:40;;;;;;;3.08;0.90;;;;;;;;;;4980283;28;20032;-84
2022/06/26 07:23:06;;;;;;;0.90;0.90;;;;;;;;;;4971455;28;20082;-84
2022/06/26 07:25:31;;;;;;;0.80;0.80;;;;;;;;;;4964390;28;20121;-85
2022/06/26 07:27:57;;;;;;;0.65;0.65;;;;;;;;;;4975771;28;20460;-85
2022/06/26 07:30:22;;;;;;;1.73;1.02;;;;;;;;;;4980733;28;20038;-83
2022/06/26 07:32:48;;;;;;;2.15;0.90;;;;;;;;;;4979414;28;20098;-84
2022/06/26 07:35:14;;;;;;;0.82;0.82;;;;;;;;;;4961671;28;20081;-85
2022/06/26 07:37:40;;;;;;;1.27;0.70;;;;;;;;;;4960400;28;20038;-86
2022/06/26 07:40:07;;;;;;;0.98;0.85;;;;;;;;;;4960116;28;20039;-84
2022/06/26 07:42:33;;;;;;;0.90;0.90;;;;;;;;;;4959164;29;20047;-85
2022/06/26 07:44:59;;;;;;;1.15;0.90;;;;;;;;;;4969093;28;20053;-85
2022/06/26 07:47:24;;;;;;;1.00;0.90;;;;;;;;;;4977147;28;20022;-83
2022/06/26 07:49:50;;;;;;;1.55;1.10;;;;;;;;;;4972669;28;20465;-85
2022/06/26 07:52:15;;;;;;;2.90;0.93;;;;;;;;;;4978442;28;20035;-85
2022/06/26 07:54:42;;;;;;;0.90;0.90;;;;;;;;;;4979999;28;20034;-84
2022/06/26 07:57:07;;;;;;;0.88;0.88;;;;;;;;;;4975726;28;20051;-84
2022/06/26 07:59:33;;;;;;;0.63;0.63;;;;;;;;;;4971893;28;20023;-85
2022/06/26 08:01:59;;;;;;;1.40;0.70;;;;;;;;;;4977593;28;20026;-84
2022/06/26 08:04:24;;;;;;;1.92;0.80;;;;;;;;;;4962827;28;20027;-84
2022/06/26 08:06:50;;;;;;;0.63;0.63;;;;;;;;;;4962284;28;20027;-85
2022/06/26 08:09:15;;;;;;;0.80;0.80;;;;;;;;;;4964422;28;20168;-85
2022/06/26 08:11:41;;;;;;;0.98;0.98;;;;;;;;;;4967386;28;20030;-85
2022/06/26 08:14:06;;;;;;;0.70;0.70;;;;;;;;;;4983442;28;20058;-85
2022/06/26 08:16:31;;;;;;;1.52;0.88;;;;;;;;;;4983498;28;20031;-84
2022/06/26 08:18:57;;;;;;;2.40;0.90;;;;;;;;;;4975955;28;20362;-84
2022/06/26 08:24:06;;;;;;;0.93;0.75;;;;;;;;;;4982914;28;20046;-85
2022/06/26 08:26:32;;;;;;;1.23;0.90;;;;;;;;;;4983109;28;20572;-85
2022/06/26 08:28:57;;;;;;;0.70;0.70;;;;;;;;;;4977202;28;20023;-85
2022/06/26 08:31:23;;;;;;;0.80;0.80;;;;;;;;;;4979644;28;20069;-83
2022/06/26 08:33:48;;;;;;;0.95;0.95;;;;;;;;;;4962677;28;20073;-85
2022/06/26 08:36:13;;;;;;;0.85;0.85;;;;;;;;;;4963821;28;20031;-85
2022/06/26 08:38:39;;;;;;;0.85;0.70;;;;;;;;;;4964612;28;20482;-83
2022/06/26 08:41:08;;;;;;;0.70;0.70;;;;;;;;;;4983188;28;20057;-84
2022/06/26 08:43:33;;;;;;;0.90;0.68;;;;;;;;;;4981010;28;20030;-84
2022/06/26 08:46:03;;;;;;;1.38;0.90;;;;;;;;;;4966206;28;20023;-85
2022/06/26 08:48:39;;;;;;;0.63;0.63;;;;;;;;;;4962228;28;20027;-84
2022/06/26 08:51:07;;;;;;;0.82;0.82;;;;;;;;;;4982322;28;20090;-83
2022/06/26 08:53:35;;;;;;;0.68;0.68;;;;;;;;;;5000302;28;20426;-85
2022/06/26 08:56:01;;;;;;;0.80;0.80;;;;;;;;;;4984876;28;20028;-84
2022/06/26 08:58:27;;;;;;;0.85;0.85;;;;;;;;;;4977025;28;20049;-84
2022/06/26 09:00:52;;;;;;;0.60;0.60;;;;;;;;;;4965324;28;20023;-85
2022/06/26 09:03:18;;;;;;;0.90;0.90;;;;;;;;;;4964635;28;20028;-85
2022/06/26 09:05:43;;;;;;;0.82;0.77;;;;;;;;;;4967315;28;20039;-84
2022/06/26 09:08:19;;;;;;;0.80;0.80;;;;;;;;;;4962541;28;20027;-84
2022/06/26 09:10:49;;;;;;;0.98;0.70;;;;;;;;;;4969128;28;20051;-82
2022/06/26 09:13:14;;;;;;;0.68;0.68;;;;;;;;;;4962739;28;20027;-85
2022/06/26 09:15:41;;;;;;;0.70;0.70;;;;;;;;;;4962399;28;20099;-85
2022/06/26 09:18:08;;;;;;;0.90;0.90;;;;;;;;;;4976201;28;20159;-85
2022/06/26 09:20:36;;;;;;;1.02;0.93;;;;;;;;;;4971337;28;20027;-84
2022/06/26 09:23:03;;;;;;;0.88;0.85;;;;;;;;;;4961705;28;20055;-84
2022/06/26 09:25:36;;;;;;;0.88;0.88;;;;;;;;;;4967124;28;20042;-84
2022/06/26 09:28:23;;;;;;;0.75;0.75;;;;;;;;;;4968623;28;20047;-84
2022/06/26 09:31:19;;;;;;;0.50;0.50;;;;;;;;;;4973622;28;20081;-83
2022/06/26 09:33:44;;;;;;;0.70;0.70;;;;;;;;;;4968886;28;20035;-83
2022/06/26 09:36:15;;;;;;;1.02;1.02;;;;;;;;;;4976260;28;20058;-84
2022/06/26 09:38:48;;;;;;;2.25;1.00;;;;;;;;;;4980089;28;20019;-85
2022/06/26 09:41:13;;;;;;;1.00;1.00;;;;;;;;;;4979436;28;20099;-87
2022/06/26 09:43:42;;;;;;;1.00;0.90;;;;;;;;;;4980631;28;20074;-86
2022/06/26 09:46:13;;;;;;;0.80;0.80;;;;;;;;;;4981163;28;20027;-86
2022/06/26 09:48:40;;;;;;;0.70;0.70;;;;;;;;;;4975896;28;20096;-84
2022/06/26 09:51:09;;;;;;;0.80;0.80;;;;;;;;;;4966979;28;20038;-86
2022/06/26 09:53:35;;;;;;;0.70;0.70;;;;;;;;;;4964869;28;20114;-85
2022/06/26 09:56:01;;;;;;;1.95;0.82;;;;;;;;;;4970726;28;20038;-85
2022/06/26 09:58:29;;;;;;;0.98;0.85;;;;;;;;;;4979668;28;20031;-88
2022/06/26 10:06:30;;;;;;;0.73;0.73;;;;;;;;;;4959201;29;20035;-87
2022/06/26 10:09:17;;;;;;;0.70;0.70;;;;;;;;;;4955877;28;20394;-88
2022/06/26 10:11:45;;;;;;;0.70;0.70;;;;;;;;;;4958155;28;20110;-88
2022/06/26 10:14:35;;;;;;;1.30;0.90;;;;;;;;;;4957051;28;20023;-87
2022/06/26 10:17:23;;;;;;;1.00;0.90;;;;;;;;;;4961517;28;20018;-88
2022/06/26 10:20:04;;;;;;;0.80;0.68;;;;;;;;;;4968200;28;20027;-87
2022/06/26 10:22:43;;;;;;;0.90;0.90;;;;;;;;;;4955609;28;20031;-86
2022/06/26 10:25:24;;;;;;;2.28;0.93;;;;;;;;;;4962107;28;20054;-87
2022/06/26 10:27:50;;;;;;;1.42;0.95;;;;;;;;;;4963048;28;20018;-87
2022/06/26 10:30:20;;;;;;;0.73;0.70;;;;;;;;;;4961340;28;20039;-87
2022/06/26 10:32:46;;;;;;;0.77;0.77;;;;;;;;;;4976351;28;20026;-87
2022/06/26 10:35:14;;;;;;;1.17;0.82;;;;;;;;;;4974450;28;20023;-86
2022/06/26 10:37:44;;;;;;;1.10;1.05;;;;;;;;;;4973148;28;20023;-87
2022/06/26 10:43:11;;;;;;;0.88;0.88;;;;;;;;;;4962543;28;20034;-87
2022/06/26 10:45:40;;;;;;;1.10;0.90;;;;;;;;;;4974931;28;20038;-86
2022/06/26 10:48:17;;;;;;;1.52;1.20;;;;;;;;;;4995055;28;20018;-87
2022/06/26 10:50:45;;;;;;;1.13;0.60;;;;;;;;;;4974247;28;20498;-87
2022/06/26 10:53:30;;;;;;;0.65;0.65;;;;;;;;;;4984689;23;20039;-87
2022/06/26 10:56:08;;;;;;;0.60;0.60;;;;;;;;;;4949151;28;20058;-88
2022/06/26 10:58:36;;;;;;;0.70;0.70;;;;;;;;;;4958891;28;20025;-87
2022/06/26 11:01:04;;;;;;;2.28;1.13;;;;;;;;;;4963550;28;20487;-87
2022/06/26 11:03:30;;;;;;;0.70;0.70;;;;;;;;;;4966738;28;20035;-87
2022/06/26 11:06:01;;;;;;;1.92;1.02;;;;;;;;;;4980488;28;20495;-88
2022/06/26 11:08:54;;;;;;;0.80;0.80;;;;;;;;;;4975954;28;20030;-88
2022/06/26 11:11:25;;;;;;;0.80;0.80;;;;;;;;;;4954626;28;20105;-86
2022/06/26 11:13:55;;;;;;;0.90;0.90;;;;;;;;;;4979592;28;20045;-87
2022/06/26 11:16:29;;;;;;;0.70;0.70;;;;;;;;;;4977784;28;20114;-88
2022/06/26 11:18:55;;;;;;;0.98;0.85;;;;;;;;;;4969340;28;20019;-88
2022/06/26 11:21:21;;;;;;;1.40;0.80;;;;;;;;;;4958613;28;20035;-87
2022/06/26 11:23:47;;;;;;;0.80;0.80;;;;;;;;;;4978866;28;20110;-87
2022/06/26 11:26:14;;;;;;;0.70;0.63;;;;;;;;;;4979454;28;20022;-87
2022/06/26 11:28:43;;;;;;;0.80;0.80;;;;;;;;;;4958256;28;20031;-87
2022/06/26 11:31:11;;;;;;;1.10;1.00;;;;;;;;;;4962945;28;20054;-88
2022/06/26 11:33:39;;;;;;;0.93;0.90;;;;;;;;;;4979139;28;20031;-87
2022/06/26 11:36:10;;;;;;;1.27;0.80;;;;;;;;;;4978984;28;20485;-87
2022/06/26 11:38:36;;;;;;;1.48;0.80;;;;;;;;;;4959279;28;20478;-87
2022/06/26 11:41:04;;;;;;;1.05;0.95;;;;;;;;;;4979210;28;20030;-87
2022/06/26 11:43:30;;;;;;;1.20;0.95;;;;;;;;;;4976414;28;20051;-86
2022/06/26 11:45:57;;;;;;;0.80;0.80;;;;;;;;;;4957489;28;20027;-87
2022/06/26 11:48:23;;;;;;;0.65;0.65;;;;;;;;;;4958718;28;20058;-84
2022/06/26 11:50:53;;;;;;;0.75;0.75;;;;;;;;;;4959281;28;20385;-86
2022/06/26 11:53:29;;;;;;;1.90;0.97;;;;;;;;;;4968901;28;20031;-87
2022/06/26 11:56:00;;;;;;;0.77;0.77;;;;;;;;;;4963181;28;20026;-88
2022/06/26 11:58:28;;;;;;;0.40;0.40;;;;;;;;;;4985212;28;20382;-84
2022/06/26 12:01:09;;;;;;;2.38;0.73;;;;;;;;;;4981290;28;20099;-82
2022/06/26 12:03:47;;;;;;;1.08;1.00;;;;;;;;;;4973305;28;20398;-82
2022/06/26 12:06:37;;;;;;;0.80;0.80;;;;;;;;;;4974510;28;20103;-83
2022/06/26 12:09:19;;;;;;;1.45;0.77;;;;;;;;;;4958835;28;20034;-82
2022/06/26 12:11:46;;;;;;;1.00;0.98;;;;;;;;;;4983347;28;20074;-83
2022/06/26 12:14:13;;;;;;;0.88;0.88;;;;;;;;;;4978035;28;20365;-84
2022/06/26 12:16:55;;;;;;;0.93;0.90;;;;;;;;;;4981413;28;20034;-83
2022/06/26 12:19:22;;;;;;;0.75;0.75;;;;;;;;;;4981975;28;20066;-85
2022/06/26 12:21:50;;;;;;;0.95;0.93;;;;;;;;;;4958219;28;20062;-86
2022/06/26 12:24:17;;;;;;;2.47;1.10;;;;;;;;;;4978014;28;20075;-86
2022/06/26 12:27:16;;;;;;;1.17;1.08;;;;;;;;;;4968614;28;20062;-86
2022/06/26 12:29:41;;;;;;;1.92;0.82;;;;;;;;;;4964181;28;20567;-88
2022/06/26 12:32:07;;;;;;;1.05;0.85;;;;;;;;;;4965029;28;20046;-86
2022/06/26 12:34:32;;;;;;;0.85;0.68;;;;;;;;;;4976959;28;20037;-83
2022/06/26 12:36:58;;;;;;;1.67;0.80;;;;;;;;;;4975892;28;20030;-85
2022/06/26 12:39:23;;;;;;;0.70;0.70;;;;;;;;;;4976001;28;20103;-87
2022/06/26 12:41:49;;;;;;;0.57;0.50;;;;;;;;;;4961718;28;20564;-84
2022/06/26 12:44:14;;;;;;;0.65;0.65;;;;;;;;;;4969817;28;20029;-87
2022/06/26 12:46:40;;;;;;;0.85;0.80;;;;;;;;;;4973984;28;20102;-85
2022/06/26 12:49:05;;;;;;;0.70;0.68;;;;;;;;;;4975143;28;20503;-84
2022/06/26 12:51:32;;;;;;;1.05;0.90;;;;;;;;;;4976352;28;20370;-82
2022/06/26 12:54:16;;;;;;;2.40;0.70;;;;;;;;;;4970197;28;20031;-83
2022/06/26 12:56:42;;;;;;;1.10;1.00;;;;;;;;;;4971218;28;20031;-82
2022/06/26 12:59:07;;;;;;;0.80;0.80;;;;;;;;;;4977129;28;20018;-84
2022/06/26 13:01:32;;;;;;;0.95;0.88;;;;;;;;;;4971978;28;20026;-82
2022/06/26 13:03:58;;;;;;;0.90;0.90;;;;;;;;;;4976769;28;20030;-85
2022/06/26 13:06:23;;;;;;;0.73;0.73;;;;;;;;;;4978315;28;20396;-81
2022/06/26 13:08:48;;;;;;;0.77;0.73;;;;;;;;;;4978613;28;20105;-82
2022/06/26 13:11:23;;;;;;;0.55;0.55;;;;;;;;;;4976824;28;20026;-82
2022/06/26 13:13:48;;;;;;;1.00;0.98;;;;;;;;;;4967388;28;20035;-82
2022/06/26 13:16:14;;;;;;;0.80;0.80;;;;;;;;;;4976909;28;20038;-83
2022/06/26 13:18:39;;;;;;;1.17;1.15;;;;;;;;;;4977015;28;20019;-82
2022/06/26 13:21:05;;;;;;;0.70;0.70;;;;;;;;;;4973169;28;20061;-81
2022/06/26 13:23:31;;;;;;;1.75;1.10;;;;;;;;;;4977221;28;20052;-81
2022/06/26 13:25:56;;;;;;;0.73;0.63;;;;;;;;;;4976077;28;20034;-81
2022/06/26 13:28:21;;;;;;;2.28;0.95;;;;;;;;;;4971666;28;20055;-84
2022/06/26 13:30:47;;;;;;;0.60;0.60;;;;;;;;;;4969191;28;20428;-81
2022/06/26 13:33:12;;;;;;;0.90;0.90;;;;;;;;;;4973357;28;20022;-81
2022/06/26 13:35:38;;;;;;;2.47;0.75;;;;;;;;;;4976664;28;20566;-81
2022/06/26 13:38:03;;;;;;;5.15;0.80;;;;;;;;;;4976058;28;20033;-82
2022/06/26 13:40:29;;;;;;;0.80;0.80;;;;;;;;;;4968339;28;20089;-81
2022/06/26 13:42:54;;;;;;;3.08;0.95;;;;;;;;;;4979816;28;20029;-81
2022/06/26 13:45:19;;;;;;;0.95;0.90;;;;;;;;;;4958773;28;20460;-82
2022/06/26 13:47:45;;;;;;;4.43;1.00;;;;;;;;;;4975822;28;20019;-82
2022/06/26 13:50:11;;;;;;;2.50;0.80;;;;;;;;;;4963949;28;20474;-81
2022/06/26 13:52:37;;;;;;;1.25;1.00;;;;;;;;;;4982677;28;20056;-82
2022/06/26 13:55:08;;;;;;;0.70;0.70;;;;;;;;;;4973265;28;20035;-81
2022/06/26 13:57:34;;;;;;;0.88;0.88;;;;;;;;;;4974986;28;20111;-82
2022/06/26 13:59:59;;;;;;;1.08;1.05;;;;;;;;;;4973333;28;20054;-81
2022/06/26 14:02:25;;;;;;;0.70;0.70;;;;;;;;;;4975053;28;20022;-82
2022/06/26 14:04:50;;;;;;;1.02;1.00;;;;;;;;;;4976505;28;20077;-82
2022/06/26 14:07:15;;;;;;;3.47;0.88;;;;;;;;;;4974175;28;20041;-83
2022/06/26 14:09:41;;;;;;;1.55;0.98;;;;;;;;;;4975484;28;20023;-81
2022/06/26 14:12:07;;;;;;;1.48;0.70;;;;;;;;;;4976341;28;20022;-82
2022/06/26 14:14:33;;;;;;;1.60;0.95;;;;;;;;;;4975553;28;20030;-81
2022/06/26 14:16:58;;;;;;;1.13;1.00;;;;;;;;;;4975448;28;20034;-83
2022/06/26 14:19:24;;;;;;;0.93;0.93;;;;;;;;;;4975771;28;20385;-80
2022/06/26 14:25:55;;;;;;;0.85;0.80;;;;;;;;;;4975418;28;20026;-87
2022/06/26 14:27:20;;;;;;;1.63;0.90;;;;;;;;;;4972762;28;20033;-81
2022/06/26 14:29:47;;;;;;;1.00;0.90;;;;;;;;;;4976259;28;20098;-81
2022/06/26 14:32:12;;;;;;;0.70;0.70;;;;;;;;;;4972798;28;20114;-82
2022/06/26 14:34:38;;;;;;;0.73;0.70;;;;;;;;;;4974681;28;20183;-82
2022/06/26 14:37:04;;;;;;;0.70;0.70;;;;;;;;;;4967085;28;20086;-82
2022/06/26 14:39:40;;;;;;;2.40;0.90;;;;;;;;;;4976257;28;20023;-82
2022/06/26 14:42:06;;;;;;;1.58;0.90;;;;;;;;;;4941954;28;20102;-83
2022/06/26 14:44:31;;;;;;;1.50;0.82;;;;;;;;;;4975407;28;20022;-82
2022/06/26 14:46:56;;;;;;;0.98;0.88;;;;;;;;;;4975782;28;20098;-83
2022/06/26 14:49:22;;;;;;;1.00;0.90;;;;;;;;;;4975620;28;20019;-82
2022/06/26 14:51:59;;;;;;;0.90;0.90;;;;;;;;;;4975715;28;20022;-81
2022/06/26 14:54:25;;;;;;;0.73;0.70;;;;;;;;;;4957232;28;20050;-83
2022/06/26 14:56:50;;;;;;;0.77;0.77;;;;;;;;;;4975067;28;20077;-82
2022/06/26 14:59:15;;;;;;;1.25;0.98;;;;;;;;;;4975677;28;20027;-81
2022/06/26 15:01:41;;;;;;;2.92;1.10;;;;;;;;;;4985138;28;20027;-80